• Join FlightAware (Why Join?)
  • Login
  • US Flag 
11:10PM EDT


 

Airport Tracker/Info


-or-


 

Live Flight TrackerFlight Track Log ✈ N80HB ✈ 19-Oct-2013 ✈ KICT - KLAL

Flight Track Log - Related Links

Times and Time Zones

All times are in EDT time to prevent confusion due to time zone crossing. See the N80HB flight status page for this flight to view local times or setup timezone preferences in your user account.

Time Position Orientation Groundspeed Altitude Reporting Facility
EDT Latitude Longitude Course Direction KTS MPH feet Rate Location/Type
11:16AM 37.6425 -97.4275 180° South 174 200 1,800  Level Kansas City Center
11:17AM 37.5753 -97.4272 180° South 235 270 5,600 2,760 Climbing Kansas City Center
11:17AM 37.5767 -97.4294 308° West 298 343 5,400 2,940 Descending Kansas City Center
11:18AM 37.5422 -97.3481 118° Southeast 285 328 8,600 2,880 Climbing Kansas City Center
11:18AM 37.5436 -97.3506 305° West 261 300 8,400 3,180 Descending Kansas City Center
11:19AM 37.5117 -97.2497 112° Southeast 311 358 11,800 3,240 Climbing Kansas City Center
11:19AM 37.5122 -97.2533 281° West 293 337 11,700 2,220 Descending Kansas City Center
11:20AM 37.4786 -97.1458 111° Southeast 321 369 14,400 2,880 Climbing Kansas City Center
11:21AM 37.4356 -97.0094 112° Southeast 346 398 17,700 2,760 Climbing Kansas City Center
11:22AM 37.3964 -96.8953 113° Southeast 355 409 20,200 2,220 Climbing Kansas City Center
11:23AM 37.3419 -96.7839 122° Southeast 369 425 22,300 2,040 Climbing Kansas City Center
11:24AM 37.2825 -96.6686 123° Southeast 389 448 24,400 2,100 Climbing Kansas City Center
11:25AM 37.2214 -96.5492 123° Southeast 403 464 26,700 2,400 Climbing Kansas City Center
11:26AM 37.1497 -96.4097 123° Southeast 405 466 29,400 2,460 Climbing Kansas City Center
11:27AM 37.0869 -96.2908 123° Southeast 405 466 31,900 2,220 Climbing Kansas City Center
11:29AM 37.0253 -96.1717 123° Southeast 405 466 34,100 1,560 Climbing Kansas City Center
11:30AM 36.9908 -96.0328 107° East 412 474 35,200 1,140 Climbing Kansas City Center
11:31AM 36.9611 -95.8892 104° East 421 484 36,500 1,200 Climbing Kansas City Center
11:32AM 36.9303 -95.7428 105° East 428 493 37,700 1,140 Climbing Kansas City Center
11:33AM 36.8706 -95.6169 121° Southeast 414 476 38,900 1,020 Climbing Kansas City Center
11:34AM 36.7978 -95.4664 121° Southeast 417 480 39,900 960 Climbing Kansas City Center
11:35AM 36.7364 -95.3397 121° Southeast 421 484 41,000 480 Climbing Kansas City Center
11:36AM 36.6731 -95.2103 121° Southeast 426 490 41,000  Level Kansas City Center
11:37AM 36.6056 -95.0731 121° Southeast 452 520 41,000  Level Kansas City Center
11:38AM 36.5367 -94.9319 121° Southeast 470 541 41,000  Level Kansas City Center
11:39AM 36.4667 -94.7911 122° Southeast 474 545 41,000  Level Kansas City Center
11:40AM 36.3950 -94.6492 122° Southeast 479 551 41,000  Level Kansas City Center
11:41AM 36.3228 -94.5072 122° Southeast 483 556 41,000  Level Kansas City Center
11:42AM 36.2517 -94.3653 122° Southeast 484 557 41,000  Level Kansas City Center
11:43AM 36.1672 -94.1958 122° Southeast 481 554 41,000  Level Kansas City Center
11:44AM 36.1031 -94.0686 122° Southeast 481 554 41,000  Level Kansas City Center
11:45AM 36.0333 -93.9289 122° Southeast 479 551 41,000  Level Kansas City Center
11:46AM 35.9639 -93.7900 122° Southeast 478 550 41,000  Level Kansas City Center
11:47AM 35.8781 -93.6225 122° Southeast 481 554 41,000  Level Kansas City Center
11:48AM 35.7908 -93.4511 122° Southeast 484 557 41,000  Level Memphis Center
11:49AM 35.7192 -93.3128 123° Southeast 484 557 41,000  Level Memphis Center
11:50AM 35.6472 -93.1775 123° Southeast 484 557 41,000  Level Memphis Center
11:51AM 35.5753 -93.0372 122° Southeast 484 557 41,000  Level Memphis Center
11:52AM 35.5050 -92.9022 123° Southeast 479 551 41,000  Level Memphis Center
11:53AM 35.4328 -92.7650 123° Southeast 486 559 41,000  Level Memphis Center
11:54AM 35.3500 -92.6075 123° Southeast 486 559 41,000  Level Memphis Center
11:55AM 35.2794 -92.4708 122° Southeast 486 559 41,000  Level Memphis Center
11:56AM 35.2067 -92.3342 123° Southeast 481 554 41,000  Level Memphis Center
11:57AM 35.1317 -92.1953 123° Southeast 486 559 41,000  Level Memphis Center
11:58AM 35.0583 -92.0542 122° Southeast 491 565 41,000  Level Memphis Center
11:59AM 34.9831 -91.9158 124° Southeast 491 565 41,000  Level Memphis Center
12:00PM 34.9097 -91.7803 123° Southeast 491 565 41,000  Level Memphis Center
12:01PM 34.8442 -91.6578 123° Southeast 485 558 41,000  Level Memphis Center
12:02PM 34.7683 -91.5200 124° Southeast 490 564 41,000  Level Memphis Center
12:03PM 34.6925 -91.3775 123° Southeast 490 564 41,000  Level Memphis Center
12:04PM 34.6081 -91.2278 124° Southeast 490 564 41,000  Level Memphis Center
12:05PM 34.5317 -91.0908 124° Southeast 490 564 41,000  Level Memphis Center
12:06PM 34.4550 -90.9542 124° Southeast 490 564 41,000  Level Memphis Center
12:07PM 34.3786 -90.8153 124° Southeast 490 564 41,000  Level Memphis Center
12:08PM 34.3039 -90.6789 124° Southeast 490 564 41,000  Level Memphis Center
12:09PM 34.2247 -90.5381 124° Southeast 490 564 41,000  Level Memphis Center
12:10PM 34.1478 -90.3997 124° Southeast 495 570 41,000  Level Memphis Center
12:11PM 34.0703 -90.2669 125° Southeast 490 564 41,000  Level Memphis Center
12:12PM 33.9931 -90.1267 124° Southeast 490 564 41,000  Level Memphis Center
12:13PM 33.9156 -89.9892 124° Southeast 490 564 41,000  Level Memphis Center
12:14PM 33.8419 -89.8569 124° Southeast 490 564 41,000  Level Memphis Center
12:15PM 33.7767 -89.7375 123° Southeast 485 558 41,000  Level Memphis Center
12:16PM 33.6986 -89.6031 125° Southeast 490 564 41,000  Level Memphis Center
12:17PM 33.6206 -89.4667 124° Southeast 490 564 41,000  Level Memphis Center
12:18PM 33.5444 -89.3328 124° Southeast 490 564 41,000  Level Memphis Center
12:19PM 33.4658 -89.1969 125° Southeast 490 564 41,000  Level Memphis Center
12:20PM 33.3875 -89.0611 125° Southeast 490 564 41,000  Level Memphis Center
12:21PM 33.3086 -88.9256 125° Southeast 490 564 41,000  Level Memphis Center
12:22PM 33.2297 -88.7878 124° Southeast 490 564 41,000  Level Memphis Center
12:23PM 33.1486 -88.6553 126° Southeast 490 564 41,000  Level Memphis Center
12:24PM 33.0694 -88.5203 125° Southeast 490 564 41,000  Level Memphis Center
12:26PM 32.9064 -88.2472 125° Southeast 503 579 41,000  Level Atlanta Center
12:27PM 32.8194 -88.0997 125° Southeast 509 586 41,000  Level Atlanta Center
12:28PM 32.7544 -87.9808 123° Southeast 509 586 41,000  Level Atlanta Center
12:29PM 32.6689 -87.8461 127° Southeast 503 579 41,000  Level Atlanta Center
12:30PM 32.5894 -87.7122 125° Southeast 503 579 41,000  Level Atlanta Center
12:31PM 32.5119 -87.5808 125° Southeast 503 579 41,000  Level Atlanta Center
12:32PM 32.4261 -87.4444 127° Southeast 489 563 41,000  Level Atlanta Center
12:33PM 32.3522 -87.3211 125° Southeast 483 556 41,000  Level Atlanta Center
12:34PM 32.2700 -87.1928 127° Southeast 494 568 41,000  Level Atlanta Center
12:35PM 32.1917 -87.0625 125° Southeast 494 568 41,000  Level Atlanta Center
12:36PM 32.1092 -86.9322 127° Southeast 494 568 41,000  Level Atlanta Center
12:37PM 32.0308 -86.7997 125° Southeast 494 568 41,000  Level Atlanta Center
12:38PM 31.9503 -86.6750 127° Southeast 488 562 41,000  Level Atlanta Center
12:39PM 31.8672 -86.5431 127° Southeast 494 568 41,000  Level Atlanta Center
12:41PM 31.7436 -86.3469 127° Southeast 502 578 41,000  Level Jacksonville Center
12:42PM 31.6656 -86.2194 126° Southeast 492 566 41,000  Level Jacksonville Center
12:43PM 31.5856 -86.0922 126° Southeast 492 566 41,000  Level Jacksonville Center
12:44PM 31.5050 -85.9678 127° Southeast 492 566 41,000  Level Jacksonville Center
12:45PM 31.4247 -85.8361 126° Southeast 492 566 41,000  Level Jacksonville Center
12:46PM 31.3458 -85.7142 127° Southeast 492 566 41,000  Level Jacksonville Center
12:47PM 31.2733 -85.5931 125° Southeast 475 547 41,000  Level Jacksonville Center
12:48PM 31.1947 -85.4694 127° Southeast 475 547 41,000  Level Jacksonville Center
12:49PM 31.1175 -85.3508 127° Southeast 468 539 41,000  Level Jacksonville Center
12:50PM 31.0406 -85.2275 126° Southeast 468 539 41,000  Level Jacksonville Center
12:51PM 30.9633 -85.1092 127° Southeast 468 539 41,000  Level Jacksonville Center
12:52PM 30.8881 -84.9889 126° Southeast 468 539 41,000  Level Jacksonville Center
12:53PM 30.8086 -84.8711 128° Southeast 468 539 41,000 -60 Level Jacksonville Center
12:54PM 30.7289 -84.7511 128° Southeast 468 539 40,900 -1,020 Descending Jacksonville Center
12:56PM 30.6146 -84.5811 128° Southeast  Level FlightAware Approximate
01:03PM 30.1125 -83.8167 131° Southeast  Level FlightAware Approximate
01:04PM 30.0363 -83.7125 127° Southeast  Level FlightAware Approximate
01:05PM 29.9641 -83.6040 128° Southeast  Level FlightAware Approximate
01:06PM 29.8918 -83.4957 128° Southeast  Level FlightAware Approximate
01:07PM 29.8195 -83.3875 128° Southeast  Level FlightAware Approximate
01:08PM 29.7474 -83.2792 127° Southeast  Level FlightAware Approximate
01:09PM 29.6753 -83.1709 127° Southeast  Level FlightAware Approximate
01:10PM 29.6031 -83.0629 128° Southeast  Level FlightAware Approximate
01:11PM 29.5139 -82.9816 151° Southeast  Level FlightAware Approximate
01:11PM 29.3792 -82.9069 150° Southeast 429 494 22,800  Level Jacksonville Center
01:12PM 29.4099 -82.9166 151° Southeast  Level FlightAware Approximate
01:13PM 29.3040 -82.8557 152° Southeast  Level FlightAware Approximate
01:14PM 29.2005 -82.7897 151° Southeast  Level FlightAware Approximate
01:15PM 29.0970 -82.7238 151° Southeast  Level FlightAware Approximate
01:15PM 28.9825 -82.6481 150° Southeast 411 473 18,600  Level Jacksonville Center
01:16PM 28.9939 -82.6570 150° Southeast  Level FlightAware Approximate
01:16PM 28.8906 -82.5889 151° Southeast 406 467 17,400  Level Jacksonville Center
01:17PM 28.8916 -82.5888 150° Southeast  Level FlightAware Approximate
01:18PM 28.7872 -82.5248 150° Southeast  Level FlightAware Approximate
01:18PM 28.6833 -82.4500 150° Southeast 338 389 14,100  Level Tampa TRACON
01:19PM 28.6840 -82.4587 156° South  Level FlightAware Approximate
01:19PM 28.6000 -82.4000 152° Southeast 337 388 12,600  Level Tampa TRACON
01:20PM 28.5808 -82.3927 150° Southeast  Level FlightAware Approximate
01:20PM 28.5000 -82.3500 156° South 337 388 10,700  Level Tampa TRACON
01:21PM 28.4333 -82.3333 168° South 329 379 9,400 -1,680 Descending Tampa TRACON
01:22PM 28.3667 -82.3167 168° South 286 329 7,700 -1,500 Descending Tampa TRACON
01:23PM 28.3000 -82.3000 168° South 218 251 6,600 -900 Descending Tampa TRACON
01:24PM 28.2333 -82.2833 168° South 297 342 6,000 -1,140 Descending Tampa TRACON
01:25PM 28.1667 -82.2667 168° South 229 264 4,300 -1,560 Descending Tampa TRACON
01:26PM 28.1000 -82.2500 168° South 222 255 2,900 -1,200 Descending Tampa TRACON
01:27PM 28.0500 -82.2167 150° Southeast 220 253 2,100 -480 Descending Tampa TRACON
01:28PM 28.0000 -82.1667 139° Southeast 240 276 2,000 -120 Descending Tampa TRACON
01:29PM 27.9833 -82.1167 111° Southeast 233 268 1,900 -180 Descending Tampa TRACON